Time;durP1;ratioP1;P1;durP2;ratioP2;P2;SDS_P1;SDS_P2;PMS_P1;PMS_P2;Temp;Humidity;BMP_temperature;BMP_pressure;BME280_temperature;BME280_humidity;BME280_pressure;Samples;Min_cycle;Max_cycle;Signal;HPM_P1;HPM_P2
2021/11/22 00:01:35;;;;;;;0.50;0.50;;;12.80;78.60;;;;;;5116374;27;20120;-57
2021/11/22 00:04:02;;;;;;;0.55;0.40;;;12.90;78.60;;;;;;5115384;27;20040;-58
2021/11/22 00:06:27;;;;;;;1.15;0.60;;;12.90;78.60;;;;;;5114307;28;20044;-57
2021/11/22 00:08:53;;;;;;;0.40;0.40;;;12.90;78.60;;;;;;5116531;27;20046;-58
2021/11/22 00:11:19;;;;;;;0.52;0.40;;;12.90;78.60;;;;;;5131759;27;20041;-57
2021/11/22 00:13:44;;;;;;;1.35;0.60;;;13.00;78.60;;;;;;5114451;28;20042;-57
2021/11/22 00:16:10;;;;;;;0.35;0.35;;;12.90;78.60;;;;;;5132763;27;20070;-57
2021/11/22 00:18:36;;;;;;;0.60;0.40;;;12.90;78.60;;;;;;5132196;27;20035;-57
2021/11/22 00:21:01;;;;;;;0.60;0.45;;;12.90;78.60;;;;;;5115229;27;20108;-57
2021/11/22 00:23:27;;;;;;;1.55;0.40;;;12.90;78.60;;;;;;5113416;28;20484;-57
2021/11/22 00:25:53;;;;;;;0.50;0.35;;;12.90;78.60;;;;;;5087040;27;20050;-57
2021/11/22 00:28:18;;;;;;;0.80;0.50;;;12.90;79.20;;;;;;5114118;28;20123;-57
2021/11/22 00:30:44;;;;;;;0.30;0.30;;;12.90;78.60;;;;;;5113837;28;20089;-58
2021/11/22 00:33:11;;;;;;;0.52;0.35;;;12.90;78.60;;;;;;5114000;28;20047;-58
2021/11/22 00:35:37;;;;;;;1.25;0.50;;;12.90;78.60;;;;;;5113812;28;20078;-57
2021/11/22 00:38:05;;;;;;;0.47;0.40;;;12.90;78.60;;;;;;5114568;27;20050;-57
2021/11/22 00:40:36;;;;;;;0.57;0.50;;;12.90;78.60;;;;;;5113385;28;20039;-57
2021/11/22 00:43:02;;;;;;;0.93;0.50;;;12.90;78.60;;;;;;5113567;28;20541;-57
2021/11/22 00:45:29;;;;;;;1.27;0.70;;;12.90;78.60;;;;;;5116440;27;20046;-58
2021/11/22 00:47:57;;;;;;;0.93;0.32;;;12.90;78.60;;;;;;5131959;27;20608;-58
2021/11/22 00:50:23;;;;;;;1.05;0.40;;;12.90;78.60;;;;;;5133629;27;20114;-58
2021/11/22 00:52:49;;;;;;;0.43;0.30;;;12.90;78.60;;;;;;5133980;27;20508;-58
2021/11/22 00:55:15;;;;;;;0.50;0.45;;;12.80;78.50;;;;;;5126341;27;20039;-59
2021/11/22 00:57:41;;;;;;;0.50;0.30;;;12.90;78.60;;;;;;5131795;27;20172;-59
2021/11/22 01:00:10;;;;;;;0.93;0.52;;;12.80;78.50;;;;;;5127217;27;20063;-57
2021/11/22 01:02:36;;;;;;;0.52;0.40;;;12.90;78.60;;;;;;5113469;28;20128;-57
2021/11/22 01:05:06;;;;;;;1.23;0.65;;;12.90;78.60;;;;;;5113503;28;20448;-57
2021/11/22 01:07:32;;;;;;;0.47;0.30;;;12.90;78.60;;;;;;5113471;28;20043;-56
2021/11/22 01:09:59;;;;;;;0.30;0.30;;;12.90;79.20;;;;;;5114276;27;20123;-58
2021/11/22 01:12:28;;;;;;;1.40;0.50;;;12.90;78.60;;;;;;5126305;27;20043;-57
2021/11/22 01:14:58;;;;;;;1.58;0.30;;;12.90;78.60;;;;;;5134135;27;20051;-58
2021/11/22 01:17:24;;;;;;;1.95;0.50;;;12.80;78.50;;;;;;5114945;28;20042;-58
2021/11/22 01:19:53;;;;;;;0.40;0.40;;;12.80;78.50;;;;;;5113966;28;20040;-58
2021/11/22 01:22:20;;;;;;;0.30;0.30;;;12.90;78.50;;;;;;5129053;28;20126;-58
2021/11/22 01:24:46;;;;;;;0.55;0.40;;;12.80;78.50;;;;;;5133793;28;20444;-57
2021/11/22 01:27:12;;;;;;;0.60;0.50;;;12.90;78.50;;;;;;5117893;28;20114;-58
2021/11/22 01:29:37;;;;;;;0.88;0.50;;;12.80;78.50;;;;;;5122362;28;20070;-58
2021/11/22 01:32:03;;;;;;;0.43;0.40;;;12.80;78.50;;;;;;5113094;28;20483;-58
2021/11/22 01:34:29;;;;;;;0.38;0.25;;;12.80;78.50;;;;;;5098095;28;20438;-59
2021/11/22 01:36:55;;;;;;;0.65;0.47;;;12.80;78.50;;;;;;5116077;28;20036;-58
2021/11/22 01:39:21;;;;;;;0.35;0.30;;;12.90;79.20;;;;;;5113061;28;20043;-57
2021/11/22 01:41:46;;;;;;;0.98;0.43;;;12.80;78.50;;;;;;5113937;28;20042;-57
2021/11/22 01:44:13;;;;;;;0.32;0.30;;;12.80;78.60;;;;;;5094002;28;20480;-58
2021/11/22 01:46:38;;;;;;;0.57;0.45;;;12.90;78.60;;;;;;5126783;28;20415;-57
2021/11/22 01:49:05;;;;;;;0.55;0.40;;;12.80;79.20;;;;;;5133548;28;20042;-57
2021/11/22 01:51:31;;;;;;;1.02;0.57;;;12.90;78.60;;;;;;5131788;28;20039;-58
2021/11/22 01:53:58;;;;;;;0.30;0.30;;;12.80;78.50;;;;;;5133407;28;20467;-57
2021/11/22 01:56:25;;;;;;;0.60;0.45;;;12.80;78.50;;;;;;5132898;27;20487;-57
2021/11/22 01:58:50;;;;;;;0.35;0.35;;;12.80;78.50;;;;;;5135703;27;20503;-57
2021/11/22 02:01:17;;;;;;;0.63;0.40;;;12.80;78.50;;;;;;5115174;27;20027;-57
2021/11/22 02:03:43;;;;;;;0.40;0.38;;;12.80;78.50;;;;;;5118315;27;20522;-57
2021/11/22 02:06:09;;;;;;;0.30;0.30;;;12.80;78.50;;;;;;5118749;27;20047;-57
2021/11/22 02:08:34;;;;;;;0.28;0.28;;;12.90;78.50;;;;;;5119149;27;20463;-57
2021/11/22 02:11:00;;;;;;;0.90;0.55;;;12.80;78.50;;;;;;5108658;28;20443;-57
2021/11/22 02:13:26;;;;;;;0.43;0.30;;;12.80;78.50;;;;;;5117767;27;20047;-58
2021/11/22 02:15:52;;;;;;;0.30;0.30;;;12.80;78.50;;;;;;5123295;27;20108;-58
2021/11/22 02:18:18;;;;;;;1.63;0.50;;;12.80;78.50;;;;;;5135387;27;20407;-58
2021/11/22 02:20:45;;;;;;;0.35;0.30;;;12.80;78.50;;;;;;5127485;27;20062;-58
2021/11/22 02:23:12;;;;;;;0.82;0.40;;;12.80;78.50;;;;;;5099124;28;20070;-58
2021/11/22 02:25:40;;;;;;;0.32;0.32;;;12.80;78.50;;;;;;5116572;28;20433;-57
2021/11/22 02:28:08;;;;;;;1.13;0.50;;;12.90;78.60;;;;;;5120280;27;20039;-58
2021/11/22 02:30:38;;;;;;;0.80;0.40;;;12.80;78.50;;;;;;5117677;27;20050;-58
2021/11/22 02:33:18;;;;;;;0.98;0.43;;;12.90;78.60;;;;;;5134867;27;20048;-58
2021/11/22 02:35:50;;;;;;;0.35;0.35;;;12.80;78.50;;;;;;5116322;27;20054;-58
2021/11/22 02:38:18;;;;;;;0.60;0.38;;;12.80;78.50;;;;;;5131490;27;20073;-57
2021/11/22 02:40:44;;;;;;;0.47;0.47;;;12.80;78.50;;;;;;5116174;28;20047;-57
2021/11/22 02:43:10;;;;;;;0.30;0.30;;;12.70;78.50;;;;;;5101179;27;20504;-57
2021/11/22 02:45:35;;;;;;;0.43;0.35;;;12.80;78.50;;;;;;5120811;27;20071;-58
2021/11/22 02:48:01;;;;;;;0.40;0.40;;;12.80;78.50;;;;;;5136296;27;20535;-57
2021/11/22 02:50:27;;;;;;;0.30;0.30;;;12.80;78.50;;;;;;5119615;27;20122;-57
2021/11/22 02:52:52;;;;;;;0.30;0.30;;;12.80;78.50;;;;;;5115160;28;20039;-58
2021/11/22 02:55:21;;;;;;;0.35;0.35;;;12.80;78.50;;;;;;5127095;27;20100;-57
2021/11/22 02:57:47;;;;;;;0.73;0.60;;;12.80;78.50;;;;;;5131883;27;20490;-58
2021/11/22 03:00:33;;;;;;;0.90;0.40;;;12.70;78.50;;;;;;5110930;27;20035;-57
2021/11/22 03:02:59;;;;;;;0.30;0.30;;;12.80;78.40;;;;;;5115145;27;20043;-57
2021/11/22 03:05:25;;;;;;;0.40;0.40;;;12.80;78.50;;;;;;5116963;27;20534;-57
2021/11/22 03:07:53;;;;;;;0.55;0.40;;;12.80;78.50;;;;;;5101960;27;20043;-57
2021/11/22 03:10:20;;;;;;;0.55;0.30;;;12.70;78.50;;;;;;5135826;27;20118;-58
2021/11/22 03:12:47;;;;;;;0.88;0.60;;;12.80;78.50;;;;;;5131110;27;20075;-57
2021/11/22 03:15:16;;;;;;;0.85;0.40;;;12.70;78.50;;;;;;5124142;27;20039;-57
2021/11/22 03:17:43;;;;;;;0.20;0.20;;;12.70;78.50;;;;;;5135978;27;20039;-57
2021/11/22 03:20:12;;;;;;;0.50;0.40;;;12.70;78.50;;;;;;5134803;27;20090;-57
2021/11/22 03:22:38;;;;;;;1.20;0.40;;;12.70;78.50;;;;;;5115002;28;20120;-58
2021/11/22 03:25:06;;;;;;;1.60;0.60;;;12.80;78.50;;;;;;5115823;27;20461;-57
2021/11/22 03:27:32;;;;;;;0.40;0.32;;;12.70;78.50;;;;;;5115298;27;20491;-58
2021/11/22 03:29:58;;;;;;;0.95;0.30;;;12.70;78.50;;;;;;5126170;27;20062;-57
2021/11/22 03:32:24;;;;;;;0.60;0.30;;;12.70;78.50;;;;;;5135649;27;20091;-58
2021/11/22 03:34:50;;;;;;;0.40;0.40;;;12.70;78.50;;;;;;5133245;27;20039;-57
2021/11/22 03:37:15;;;;;;;1.15;0.40;;;12.70;78.50;;;;;;5115377;27;20471;-57
2021/11/22 03:39:46;;;;;;;0.30;0.30;;;12.80;78.50;;;;;;5129030;27;20106;-58
2021/11/22 03:42:15;;;;;;;0.70;0.30;;;12.70;78.50;;;;;;5114690;28;20048;-58
2021/11/22 03:44:42;;;;;;;0.30;0.30;;;12.70;78.50;;;;;;5114887;28;20044;-58
2021/11/22 03:47:08;;;;;;;0.40;0.30;;;12.70;78.50;;;;;;5131017;27;20089;-57
2021/11/22 03:49:34;;;;;;;0.30;0.30;;;12.70;78.50;;;;;;5135246;27;20051;-57
2021/11/22 03:52:01;;;;;;;0.68;0.30;;;12.70;78.50;;;;;;5117891;27;20046;-58
2021/11/22 03:54:27;;;;;;;1.20;0.40;;;12.70;78.50;;;;;;5114236;28;20043;-57
2021/11/22 03:56:53;;;;;;;0.32;0.30;;;12.60;78.40;;;;;;5112012;27;20175;-58
2021/11/22 03:59:19;;;;;;;0.77;0.43;;;12.70;78.50;;;;;;5114776;27;20074;-58
2021/11/22 04:01:44;;;;;;;1.25;0.45;;;12.70;78.50;;;;;;5101461;28;20487;-58
2021/11/22 04:04:11;;;;;;;0.65;0.40;;;12.70;78.50;;;;;;5114325;28;20043;-57
2021/11/22 04:06:36;;;;;;;1.75;0.40;;;12.70;78.50;;;;;;5109308;27;20088;-57
2021/11/22 04:09:04;;;;;;;0.30;0.30;;;12.80;78.50;;;;;;5132854;27;20031;-58
2021/11/22 04:11:30;;;;;;;0.40;0.20;;;12.70;78.50;;;;;;5102716;28;20496;-57
2021/11/22 04:13:56;;;;;;;0.40;0.40;;;12.80;78.50;;;;;;5114306;28;20062;-58
2021/11/22 04:16:22;;;;;;;0.38;0.38;;;12.70;78.50;;;;;;5107672;27;20483;-59
2021/11/22 04:18:49;;;;;;;0.43;0.30;;;12.70;78.50;;;;;;5132957;27;20047;-58
2021/11/22 04:21:17;;;;;;;0.35;0.35;;;12.70;78.50;;;;;;5122774;27;20055;-58
2021/11/22 04:23:43;;;;;;;0.40;0.40;;;12.70;78.50;;;;;;5113305;28;20048;-58
2021/11/22 04:26:10;;;;;;;0.28;0.28;;;12.70;78.50;;;;;;5123548;27;20399;-59
2021/11/22 04:28:37;;;;;;;0.60;0.40;;;12.70;78.50;;;;;;5134193;27;20050;-58
2021/11/22 04:31:05;;;;;;;1.27;0.40;;;12.70;78.50;;;;;;5132832;27;20559;-59
2021/11/22 04:33:30;;;;;;;0.30;0.30;;;12.70;78.50;;;;;;5134391;27;20038;-58
2021/11/22 04:35:56;;;;;;;0.38;0.30;;;12.70;78.50;;;;;;5102898;28;20400;-58
2021/11/22 04:38:22;;;;;;;1.33;0.55;;;12.70;78.50;;;;;;5094685;28;20054;-58
2021/11/22 04:40:48;;;;;;;0.60;0.35;;;12.60;78.40;;;;;;5097847;27;20104;-59
2021/11/22 04:43:13;;;;;;;0.80;0.40;;;12.70;78.50;;;;;;5134150;27;20083;-57
2021/11/22 04:45:39;;;;;;;0.35;0.35;;;12.70;78.50;;;;;;5128344;27;20075;-58
2021/11/22 04:48:06;;;;;;;0.38;0.20;;;12.70;78.50;;;;;;5113532;28;20035;-58
2021/11/22 04:50:33;;;;;;;0.38;0.30;;;12.70;78.50;;;;;;5129092;27;20526;-58
2021/11/22 04:53:01;;;;;;;0.35;0.30;;;12.70;78.50;;;;;;5134421;27;20047;-57
2021/11/22 04:55:27;;;;;;;0.93;0.40;;;12.70;78.50;;;;;;5127541;27;20105;-57
2021/11/22 04:57:53;;;;;;;0.30;0.30;;;12.60;78.40;;;;;;5126020;27;20082;-58
2021/11/22 05:00:22;;;;;;;0.30;0.30;;;12.70;78.50;;;;;;5115786;27;20092;-58
2021/11/22 05:02:48;;;;;;;0.47;0.40;;;12.70;78.50;;;;;;5132277;27;20067;-58
2021/11/22 05:05:15;;;;;;;0.50;0.30;;;12.70;78.50;;;;;;5113082;28;20051;-58
2021/11/22 05:07:41;;;;;;;0.30;0.30;;;12.60;78.40;;;;;;5101160;28;20050;-58
2021/11/22 05:10:08;;;;;;;0.30;0.30;;;12.60;78.50;;;;;;5133292;27;20032;-58
2021/11/22 05:12:34;;;;;;;0.38;0.35;;;12.60;78.50;;;;;;5130029;27;20100;-58
2021/11/22 05:15:00;;;;;;;0.57;0.30;;;12.60;78.40;;;;;;5133359;27;20110;-58
2021/11/22 05:17:26;;;;;;;0.30;0.30;;;12.60;78.40;;;;;;5113245;28;20126;-59
2021/11/22 05:19:52;;;;;;;0.28;0.28;;;12.60;78.40;;;;;;5123317;28;20054;-58
2021/11/22 05:22:19;;;;;;;1.20;0.45;;;12.70;78.50;;;;;;5111168;28;20043;-57
2021/11/22 05:24:49;;;;;;;0.77;0.30;;;12.60;78.40;;;;;;5133508;28;20372;-58
2021/11/22 05:27:27;;;;;;;0.45;0.30;;;12.60;78.40;;;;;;5131360;28;20042;-59
2021/11/22 05:29:54;;;;;;;0.20;0.20;;;12.60;78.40;;;;;;5111737;28;20074;-58
2021/11/22 05:32:20;;;;;;;1.58;0.30;;;12.60;78.50;;;;;;5115295;28;20480;-58
2021/11/22 05:34:48;;;;;;;0.20;0.20;;;12.60;78.40;;;;;;5118139;27;20040;-57
2021/11/22 05:37:15;;;;;;;1.48;0.35;;;12.60;78.50;;;;;;5136866;27;20054;-58
2021/11/22 05:39:41;;;;;;;0.35;0.30;;;12.60;78.40;;;;;;5137616;27;20035;-57
2021/11/22 05:42:08;;;;;;;0.55;0.55;;;12.60;78.50;;;;;;5135751;27;20047;-58
2021/11/22 05:44:35;;;;;;;0.85;0.30;;;12.60;78.50;;;;;;5122816;27;20074;-57
2021/11/22 05:47:02;;;;;;;0.40;0.40;;;12.60;78.50;;;;;;5130998;27;20386;-57
2021/11/22 05:49:31;;;;;;;2.15;0.40;;;12.60;78.50;;;;;;5137830;27;20046;-57
2021/11/22 05:51:57;;;;;;;0.32;0.30;;;12.60;78.50;;;;;;5120757;27;20055;-59
2021/11/22 05:54:24;;;;;;;0.50;0.30;;;12.60;78.50;;;;;;5117792;27;20032;-59
2021/11/22 05:56:51;;;;;;;0.70;0.40;;;12.60;78.40;;;;;;5116888;27;20039;-58
2021/11/22 05:59:18;;;;;;;1.75;0.40;;;12.60;78.50;;;;;;5114883;27;20054;-57
2021/11/22 06:01:44;;;;;;;2.10;0.40;;;12.60;78.50;;;;;;5116665;27;20074;-59
2021/11/22 06:04:09;;;;;;;0.40;0.40;;;12.60;78.50;;;;;;5116872;28;20039;-58
2021/11/22 06:06:36;;;;;;;0.32;0.32;;;12.60;78.50;;;;;;5117878;27;20036;-59
2021/11/22 06:09:02;;;;;;;0.30;0.30;;;12.60;78.50;;;;;;5115261;27;20479;-57
2021/11/22 06:11:28;;;;;;;0.63;0.30;;;12.60;78.50;;;;;;5116697;27;20368;-57
2021/11/22 06:13:54;;;;;;;0.75;0.30;;;12.60;78.50;;;;;;5115012;28;20054;-57
2021/11/22 06:16:20;;;;;;;0.30;0.30;;;12.60;78.50;;;;;;5131062;27;20035;-57
2021/11/22 06:18:46;;;;;;;0.95;0.30;;;12.60;78.50;;;;;;5136807;27;20043;-58
2021/11/22 06:21:11;;;;;;;0.30;0.30;;;12.60;78.50;;;;;;5131125;27;20367;-57
2021/11/22 06:23:37;;;;;;;0.28;0.28;;;12.60;78.50;;;;;;5136672;27;20403;-57
2021/11/22 06:26:03;;;;;;;1.23;0.30;;;12.60;78.50;;;;;;5135250;27;20372;-57
2021/11/22 06:28:29;;;;;;;0.20;0.20;;;12.60;78.50;;;;;;5136671;27;20039;-57
2021/11/22 06:30:55;;;;;;;0.80;0.43;;;12.60;78.50;;;;;;5127348;27;20041;-58
2021/11/22 06:33:20;;;;;;;0.40;0.40;;;12.50;78.40;;;;;;5136846;27;20495;-58
2021/11/22 06:35:46;;;;;;;0.30;0.30;;;12.50;78.40;;;;;;5126980;27;20085;-57
2021/11/22 06:38:12;;;;;;;0.52;0.40;;;12.60;78.50;;;;;;5120825;27;20039;-57
2021/11/22 06:40:39;;;;;;;0.30;0.20;;;12.50;78.40;;;;;;5115896;28;20495;-58
2021/11/22 06:43:05;;;;;;;0.90;0.43;;;12.60;78.40;;;;;;5114970;28;20548;-58
2021/11/22 06:45:31;;;;;;;0.57;0.30;;;12.60;78.40;;;;;;5115772;28;20036;-58
2021/11/22 06:47:58;;;;;;;0.30;0.30;;;12.50;78.40;;;;;;5116907;27;20526;-58
2021/11/22 06:50:24;;;;;;;0.43;0.40;;;12.50;78.40;;;;;;5132124;27;20452;-57
2021/11/22 06:52:49;;;;;;;0.65;0.40;;;12.50;78.40;;;;;;5122029;27;20039;-57
2021/11/22 06:55:16;;;;;;;0.50;0.30;;;12.50;78.30;;;;;;5114178;28;20106;-58
2021/11/22 06:57:42;;;;;;;0.32;0.20;;;12.40;78.30;;;;;;5114679;27;20403;-57
2021/11/22 07:00:11;;;;;;;0.35;0.32;;;12.50;78.40;;;;;;5114790;28;20109;-57
2021/11/22 07:02:38;;;;;;;0.80;0.50;;;12.50;78.30;;;;;;5114309;28;20050;-58
2021/11/22 07:05:05;;;;;;;0.38;0.30;;;12.50;78.30;;;;;;5114226;27;20103;-58
2021/11/22 07:07:31;;;;;;;0.55;0.40;;;12.50;78.30;;;;;;5126697;27;20551;-58
2021/11/22 07:09:57;;;;;;;1.00;0.57;;;12.50;78.40;;;;;;5131738;27;20043;-59
2021/11/22 07:12:22;;;;;;;1.02;0.22;;;12.50;78.30;;;;;;5135508;27;20116;-59
2021/11/22 07:14:49;;;;;;;0.68;0.45;;;12.50;78.30;;;;;;5122598;27;20051;-58
2021/11/22 07:17:15;;;;;;;0.40;0.40;;;12.50;78.40;;;;;;5133847;27;20047;-58
2021/11/22 07:19:43;;;;;;;0.30;0.30;;;12.50;78.30;;;;;;5134235;27;20035;-58
2021/11/22 07:22:09;;;;;;;0.60;0.40;;;12.50;78.40;;;;;;5137232;27;20051;-58
2021/11/22 07:24:39;;;;;;;0.30;0.30;;;12.50;78.30;;;;;;5135776;27;20133;-57
2021/11/22 07:27:07;;;;;;;0.50;0.30;;;12.50;78.30;;;;;;5136608;27;20053;-58
2021/11/22 07:29:32;;;;;;;0.20;0.20;;;12.50;78.30;;;;;;5136860;27;20031;-58
2021/11/22 07:31:58;;;;;;;0.30;0.30;;;12.50;78.30;;;;;;5135652;27;20056;-57
2021/11/22 07:34:24;;;;;;;0.35;0.35;;;12.50;78.30;;;;;;5135479;27;20478;-56
2021/11/22 07:36:50;;;;;;;1.08;0.38;;;12.50;78.30;;;;;;5152276;27;20117;-58
2021/11/22 07:39:16;;;;;;;0.40;0.40;;;12.50;78.30;;;;;;5143907;27;20487;-59
2021/11/22 07:41:41;;;;;;;0.30;0.30;;;12.50;78.30;;;;;;5118077;27;20074;-57
2021/11/22 07:44:07;;;;;;;0.30;0.30;;;12.50;78.30;;;;;;5135568;27;20043;-57
2021/11/22 07:46:33;;;;;;;0.60;0.30;;;12.50;78.30;;;;;;5117505;27;20054;-57
2021/11/22 07:48:59;;;;;;;0.20;0.20;;;12.50;78.30;;;;;;5135138;27;20403;-57
2021/11/22 07:51:25;;;;;;;0.30;0.30;;;12.40;78.30;;;;;;5136633;27;20027;-58
2021/11/22 07:53:51;;;;;;;1.23;0.38;;;12.40;78.30;;;;;;5134490;27;20109;-58
2021/11/22 07:56:16;;;;;;;0.50;0.40;;;12.50;78.30;;;;;;5130271;27;20047;-59
2021/11/22 07:58:42;;;;;;;0.98;0.65;;;12.50;78.30;;;;;;5135932;27;20550;-58
2021/11/22 08:01:08;;;;;;;0.70;0.30;;;12.50;78.30;;;;;;5146298;27;20064;-58
2021/11/22 08:03:34;;;;;;;0.30;0.30;;;12.50;78.30;;;;;;5155993;27;20090;-59
2021/11/22 08:06:00;;;;;;;0.85;0.57;;;12.50;78.30;;;;;;5128211;27;20043;-57
2021/11/22 08:08:29;;;;;;;0.68;0.68;;;12.40;78.30;;;;;;5138531;27;20076;-58
2021/11/22 08:11:06;;;;;;;0.73;0.52;;;12.40;78.30;;;;;;5116523;27;20196;-59
2021/11/22 08:13:33;;;;;;;0.50;0.50;;;12.40;78.20;;;;;;5115961;27;20047;-58
2021/11/22 08:16:01;;;;;;;0.50;0.50;;;12.50;78.30;;;;;;5116258;27;20483;-59
2021/11/22 08:18:27;;;;;;;0.80;0.60;;;12.40;78.30;;;;;;5134832;27;20811;-59
2021/11/22 08:20:55;;;;;;;0.50;0.40;;;12.40;78.30;;;;;;5134012;27;20082;-59
2021/11/22 08:23:20;;;;;;;0.47;0.40;;;12.40;78.30;;;;;;5135221;27;20062;-59
2021/11/22 08:25:46;;;;;;;0.40;0.30;;;12.40;78.30;;;;;;5121060;27;20050;-57
2021/11/22 08:28:12;;;;;;;0.85;0.60;;;12.50;78.30;;;;;;5155040;27;20398;-57
2021/11/22 08:30:38;;;;;;;0.20;0.20;;;12.40;78.30;;;;;;5155454;27;20074;-58
2021/11/22 08:33:04;;;;;;;0.40;0.40;;;12.40;78.30;;;;;;5155390;27;20046;-57
2021/11/22 08:35:33;;;;;;;0.50;0.43;;;12.40;78.30;;;;;;5155098;27;20038;-59
2021/11/22 08:38:00;;;;;;;0.40;0.40;;;12.40;78.30;;;;;;5154694;27;20046;-59
2021/11/22 08:40:27;;;;;;;0.38;0.38;;;12.40;78.30;;;;;;5136344;27;20062;-57
2021/11/22 08:42:54;;;;;;;0.45;0.45;;;12.40;78.30;;;;;;5119234;27;20534;-56
2021/11/22 08:45:21;;;;;;;1.20;0.60;;;12.40;78.30;;;;;;5136667;27;20050;-56
2021/11/22 08:47:47;;;;;;;1.38;0.60;;;12.40;78.30;;;;;;5128884;27;20043;-57
2021/11/22 08:50:14;;;;;;;0.30;0.30;;;12.40;78.30;;;;;;5151293;27;20069;-56
2021/11/22 08:52:40;;;;;;;0.70;0.57;;;12.40;79.00;;;;;;5153712;27;20092;-56
2021/11/22 08:55:07;;;;;;;0.45;0.45;;;12.40;78.30;;;;;;5134250;27;20041;-56
2021/11/22 08:57:33;;;;;;;0.30;0.30;;;12.40;78.40;;;;;;5154301;27;20046;-56
2021/11/22 08:59:59;;;;;;;0.40;0.40;;;12.40;78.30;;;;;;5114038;27;20043;-56
2021/11/22 09:02:25;;;;;;;0.68;0.50;;;12.40;78.30;;;;;;5133462;27;20407;-57
2021/11/22 09:04:51;;;;;;;0.52;0.40;;;12.40;78.30;;;;;;5133241;27;20039;-56
2021/11/22 09:07:17;;;;;;;0.65;0.50;;;12.40;78.40;;;;;;5150149;27;20046;-56
2021/11/22 09:09:43;;;;;;;0.98;0.80;;;12.40;78.30;;;;;;5153173;27;20390;-56
2021/11/22 09:12:10;;;;;;;1.23;0.77;;;12.40;78.30;;;;;;5153540;27;20043;-57
2021/11/22 09:14:36;;;;;;;0.50;0.50;;;12.40;78.40;;;;;;5153532;27;20039;-57
2021/11/22 09:17:02;;;;;;;0.75;0.50;;;12.40;78.40;;;;;;5153784;27;20049;-57
2021/11/22 09:19:30;;;;;;;0.30;0.30;;;12.40;78.40;;;;;;5153901;27;20095;-56
2021/11/22 09:21:56;;;;;;;0.90;0.50;;;12.40;78.40;;;;;;5153579;27;20051;-57
2021/11/22 09:24:22;;;;;;;0.95;0.52;;;12.40;78.40;;;;;;5153197;27;20554;-58
2021/11/22 09:26:47;;;;;;;0.50;0.47;;;12.40;78.40;;;;;;5135047;27;20372;-57
2021/11/22 09:29:13;;;;;;;0.80;0.57;;;12.40;78.40;;;;;;5153465;27;20038;-57
2021/11/22 09:31:39;;;;;;;0.82;0.60;;;12.30;78.40;;;;;;5153569;27;20439;-58
2021/11/22 09:34:05;;;;;;;0.73;0.60;;;12.40;78.50;;;;;;5153530;27;20053;-59
2021/11/22 09:36:30;;;;;;;0.50;0.50;;;12.40;78.40;;;;;;5153808;27;20042;-58
2021/11/22 09:38:56;;;;;;;7.57;2.55;;;12.40;79.10;;;;;;5153447;27;20053;-55
2021/11/22 09:41:27;;;;;;;3.08;1.50;;;12.30;76.70;;;;;;5153163;27;20046;-58
2021/11/22 09:43:55;;;;;;;6.53;2.10;;;12.10;76.40;;;;;;5153259;27;20379;-56
2021/11/22 09:46:21;;;;;;;6.30;1.80;;;12.10;76.70;;;;;;5153432;27;20099;-56
2021/11/22 09:48:47;;;;;;;3.20;1.63;;;12.00;76.70;;;;;;5134703;27;20057;-57
2021/11/22 09:51:13;;;;;;;3.00;1.60;;;12.10;76.90;;;;;;5134756;27;20486;-56
2021/11/22 09:53:41;;;;;;;3.35;1.85;;;12.10;76.90;;;;;;5135207;27;20039;-57
2021/11/22 09:56:08;;;;;;;2.38;1.33;;;12.10;77.00;;;;;;5133813;27;20417;-58
2021/11/22 09:58:34;;;;;;;4.88;1.88;;;12.10;77.10;;;;;;5134545;27;20047;-58
2021/11/22 10:01:15;;;;;;;4.78;1.58;;;12.10;77.10;;;;;;5138932;27;20387;-57
2021/11/22 10:04:00;;;;;;;3.55;1.40;;;12.20;77.20;;;;;;5118687;27;20043;-57
2021/11/22 10:06:26;;;;;;;3.20;1.33;;;12.20;77.30;;;;;;5154140;27;20059;-56
2021/11/22 10:08:53;;;;;;;3.20;2.53;;;12.20;77.30;;;;;;5135423;27;20047;-58
2021/11/22 10:11:20;;;;;;;3.97;1.63;;;12.20;77.40;;;;;;5117155;27;20082;-57
2021/11/22 10:13:46;;;;;;;10.57;2.90;;;12.20;77.40;;;;;;5134582;27;20057;-46
2021/11/22 10:16:11;;;;;;;4.25;1.70;;;12.20;76.00;;;;;;5135351;27;20055;-52
2021/11/22 10:19:01;;;;;;;4.05;1.70;;;12.10;76.20;;;;;;5135780;27;20444;-53
2021/11/22 10:21:36;;;;;;;2.20;1.58;;;12.10;77.10;;;;;;5157538;27;20138;-51
2021/11/22 10:24:10;;;;;;;2.45;1.73;;;12.10;76.80;;;;;;5157405;27;20383;-54
2021/11/22 10:26:44;;;;;;;3.35;1.70;;;12.00;77.00;;;;;;5157647;27;20047;-55
2021/11/22 10:29:25;;;;;;;3.78;1.70;;;12.00;77.20;;;;;;5123450;27;20053;-53
2021/11/22 10:32:00;;;;;;;2.08;1.45;;;12.00;77.40;;;;;;5156634;27;20038;-49
2021/11/22 10:34:26;;;;;;;2.93;1.43;;;12.00;77.50;;;;;;5156645;27;20432;-48
2021/11/22 10:36:57;;;;;;;5.57;1.70;;;12.00;77.60;;;;;;5153310;27;20049;-52
2021/11/22 10:39:24;;;;;;;1.77;1.25;;;12.00;77.70;;;;;;5153347;27;20042;-48
2021/11/22 10:41:50;;;;;;;2.70;1.77;;;12.00;77.70;;;;;;5152549;27;20050;-51
2021/11/22 10:44:16;;;;;;;2.17;1.40;;;12.10;77.80;;;;;;5133720;27;20055;-53
2021/11/22 10:46:50;;;;;;;2.05;1.60;;;12.10;77.80;;;;;;5152746;27;20049;-51
2021/11/22 10:49:27;;;;;;;3.33;1.52;;;12.10;77.90;;;;;;5152309;27;20050;-46
2021/11/22 10:52:17;;;;;;;5.10;1.50;;;12.10;77.90;;;;;;5134220;27;20047;-47
2021/11/22 10:54:52;;;;;;;2.53;1.55;;;12.10;77.90;;;;;;5152524;27;20411;-49
2021/11/22 10:57:17;;;;;;;2.42;1.70;;;12.10;77.90;;;;;;5152788;27;20092;-53
2021/11/22 10:59:43;;;;;;;3.95;1.60;;;12.10;78.00;;;;;;5152446;27;20440;-49
2021/11/22 11:02:09;;;;;;;2.58;1.80;;;12.10;78.00;;;;;;5152623;27;20462;-50
2021/11/22 11:04:41;;;;;;;2.72;1.40;;;12.10;77.90;;;;;;5152819;27;20041;-55
2021/11/22 11:07:09;;;;;;;1.98;1.70;;;12.20;78.00;;;;;;5152544;27;20692;-49
2021/11/22 11:09:38;;;;;;;1.90;1.60;;;12.10;78.00;;;;;;5152487;27;20106;-52
2021/11/22 11:12:11;;;;;;;2.30;1.42;;;12.20;78.00;;;;;;5152923;27;20612;-51
2021/11/22 11:14:46;;;;;;;2.40;1.60;;;12.20;78.00;;;;;;5149531;27;20045;-49
2021/11/22 11:17:28;;;;;;;2.10;1.33;;;12.20;78.00;;;;;;5142678;27;20031;-51
2021/11/22 11:19:56;;;;;;;1.70;1.30;;;12.20;78.00;;;;;;5152447;27;20073;-48
2021/11/22 11:22:23;;;;;;;1.73;1.20;;;12.20;78.00;;;;;;5152265;27;20107;-52
2021/11/22 11:24:50;;;;;;;2.47;1.38;;;12.20;78.00;;;;;;5151858;27;20161;-49
2021/11/22 11:27:15;;;;;;;1.58;1.42;;;12.20;78.00;;;;;;5152432;27;20026;-47
2021/11/22 11:29:43;;;;;;;2.08;1.40;;;12.20;78.00;;;;;;5151021;27;20092;-49
2021/11/22 11:32:09;;;;;;;3.13;1.48;;;12.20;78.10;;;;;;5152036;27;20035;-51
2021/11/22 11:34:40;;;;;;;2.10;1.17;;;12.20;78.00;;;;;;5151920;27;20046;-49
2021/11/22 11:37:55;;;;;;;4.03;1.40;;;12.20;78.40;;;;;;5152214;27;20119;-52
2021/11/22 11:40:31;;;;;;;1.75;1.27;;;12.20;78.00;;;;;;5151700;27;20042;-51
2021/11/22 11:43:09;;;;;;;1.92;1.27;;;12.20;78.10;;;;;;5151777;27;20157;-52
2021/11/22 11:45:37;;;;;;;1.73;1.17;;;12.20;78.00;;;;;;5151562;27;20047;-49
2021/11/22 11:48:26;;;;;;;1.10;1.00;;;12.20;78.10;;;;;;5151639;27;20141;-51
2021/11/22 11:51:05;;;;;;;2.22;1.25;;;12.20;78.00;;;;;;5151268;27;20054;-53
2021/11/22 11:53:31;;;;;;;1.50;1.40;;;12.20;78.00;;;;;;5151319;27;20041;-49
2021/11/22 11:56:12;;;;;;;1.40;1.17;;;12.20;78.10;;;;;;5151990;27;20459;-53
2021/11/22 11:58:40;;;;;;;1.33;1.15;;;12.20;78.10;;;;;;5150425;27;20047;-52
2021/11/22 12:01:15;;;;;;;1.88;1.30;;;12.20;78.10;;;;;;5147053;27;20043;-53
2021/11/22 12:04:02;;;;;;;1.90;1.13;;;12.20;78.10;;;;;;5129680;27;20126;-53
2021/11/22 12:06:54;;;;;;;1.75;1.10;;;12.20;78.00;;;;;;5155899;27;20049;-54
2021/11/22 12:09:42;;;;;;;1.70;1.08;;;12.20;78.00;;;;;;5155668;27;20073;-56
2021/11/22 12:12:08;;;;;;;4.18;1.30;;;12.20;78.00;;;;;;5153622;27;20504;-64
2021/11/22 12:15:00;;;;;;;3.63;1.20;;;12.20;76.00;;;;;;5155567;27;20050;-63
2021/11/22 12:17:35;;;;;;;1.80;1.13;;;12.10;75.50;;;;;;5155623;27;20176;-62
2021/11/22 12:20:05;;;;;;;3.83;1.30;;;12.00;76.00;;;;;;5155095;27;20091;-62
2021/11/22 12:22:37;;;;;;;2.53;1.20;;;12.00;76.10;;;;;;5153127;27;20054;-64
2021/11/22 12:25:04;;;;;;;2.47;1.20;;;12.00;76.20;;;;;;5155672;27;20402;-61
2021/11/22 12:27:33;;;;;;;2.20;1.20;;;12.00;76.30;;;;;;5155563;27;20126;-64
2021/11/22 12:30:03;;;;;;;5.97;1.20;;;12.00;76.40;;;;;;5155227;27;20498;-62
2021/11/22 12:32:32;;;;;;;3.85;1.13;;;12.00;77.10;;;;;;5134549;27;20046;-64
2021/11/22 12:35:03;;;;;;;2.97;1.50;;;12.10;76.70;;;;;;5154476;27;20049;-62
2021/11/22 12:37:34;;;;;;;2.88;1.02;;;12.00;76.70;;;;;;5155507;27;20090;-62
2021/11/22 12:40:12;;;;;;;3.53;1.15;;;12.10;76.90;;;;;;5155427;27;20046;-60
2021/11/22 12:42:55;;;;;;;2.92;0.93;;;12.10;76.90;;;;;;5134132;27;20046;-62
2021/11/22 12:45:21;;;;;;;3.33;1.10;;;12.00;77.00;;;;;;5136363;27;20055;-64
2021/11/22 12:47:48;;;;;;;2.75;0.85;;;12.10;77.10;;;;;;5136089;27;20043;-60
2021/11/22 12:50:23;;;;;;;3.47;1.10;;;12.10;77.20;;;;;;5135722;27;20477;-62
2021/11/22 12:53:14;;;;;;;4.03;0.98;;;12.10;77.30;;;;;;5135102;27;20039;-61